createdAt,value
2022-12-08T00:01:00.039Z,25.66
2022-12-08T00:03:26.756Z,25.30
2022-12-08T00:05:53.161Z,25.33
2022-12-08T00:08:19.506Z,26.25
2022-12-08T00:10:49.903Z,25.58
2022-12-08T00:13:16.401Z,25.82
2022-12-08T00:15:42.676Z,26.90
2022-12-08T00:18:09.029Z,26.29
2022-12-08T00:20:35.275Z,26.00
2022-12-08T00:23:01.514Z,25.70
2022-12-08T00:25:27.782Z,25.77
2022-12-08T00:27:54.051Z,26.68
2022-12-08T00:30:20.310Z,26.63
2022-12-08T00:32:46.589Z,25.80
2022-12-08T00:35:12.826Z,25.23
2022-12-08T00:37:39.081Z,26.00
2022-12-08T00:40:05.594Z,26.50
2022-12-08T00:42:32.142Z,26.88
2022-12-08T00:44:58.399Z,26.46
2022-12-08T00:47:25.109Z,26.37
2022-12-08T00:49:51.521Z,26.14
2022-12-08T00:52:17.792Z,24.82
2022-12-08T00:54:44.064Z,25.88
2022-12-08T00:57:10.332Z,26.44
2022-12-08T00:59:36.695Z,26.10
2022-12-08T01:02:02.981Z,26.30
2022-12-08T01:04:29.316Z,27.11
2022-12-08T01:06:55.565Z,26.51
2022-12-08T01:09:21.807Z,26.20
2022-12-08T01:11:48.050Z,26.62
2022-12-08T01:14:14.312Z,26.99
2022-12-08T01:16:40.632Z,26.03
2022-12-08T01:19:06.909Z,26.31
2022-12-08T01:21:33.172Z,25.69
2022-12-08T01:23:59.444Z,25.57
2022-12-08T01:26:25.685Z,25.97
2022-12-08T01:28:51.968Z,26.45
2022-12-08T01:31:18.263Z,25.98
2022-12-08T01:33:44.628Z,26.37
2022-12-08T01:36:10.887Z,26.16
2022-12-08T01:38:37.159Z,26.45
2022-12-08T01:41:03.449Z,25.72
2022-12-08T01:43:29.714Z,25.92
2022-12-08T01:45:55.978Z,26.89
2022-12-08T01:48:22.338Z,27.11
2022-12-08T01:50:48.613Z,26.57
2022-12-08T01:53:14.869Z,26.48
2022-12-08T01:55:41.255Z,27.75
2022-12-08T01:58:07.546Z,27.06
2022-12-08T02:00:33.785Z,26.77
2022-12-08T02:03:00.170Z,25.96
2022-12-08T02:05:26.490Z,26.73
2022-12-08T02:07:52.826Z,26.96
2022-12-08T02:10:19.181Z,27.55
2022-12-08T02:12:45.466Z,27.43
2022-12-08T02:15:11.731Z,26.35
2022-12-08T02:17:37.986Z,26.95
2022-12-08T02:20:04.423Z,26.16
2022-12-08T02:22:30.829Z,26.48
2022-12-08T02:24:57.101Z,26.64
2022-12-08T02:27:23.350Z,27.08
2022-12-08T02:29:49.602Z,27.47
2022-12-08T02:32:15.846Z,27.34
2022-12-08T02:34:42.150Z,27.10
2022-12-08T02:37:08.406Z,27.05
2022-12-08T02:39:34.653Z,27.01
2022-12-08T02:42:00.917Z,26.95
2022-12-08T02:44:27.180Z,27.57
2022-12-08T02:46:53.439Z,27.48
2022-12-08T02:49:19.722Z,27.43
2022-12-08T02:51:45.996Z,27.88
2022-12-08T02:54:12.257Z,27.51
2022-12-08T02:56:38.510Z,27.42
2022-12-08T02:59:04.805Z,26.97
2022-12-08T03:01:31.127Z,27.79
2022-12-08T03:03:57.488Z,27.76
2022-12-08T03:06:23.767Z,27.54
2022-12-08T03:08:50.048Z,28.18
2022-12-08T03:11:16.288Z,28.48
2022-12-08T03:13:42.545Z,28.53
2022-12-08T03:16:08.929Z,28.81
2022-12-08T03:18:35.292Z,27.49
2022-12-08T03:21:01.682Z,28.37
2022-12-08T03:23:27.962Z,27.62
2022-12-08T03:25:54.330Z,27.94
2022-12-08T03:28:20.686Z,28.21
2022-12-08T03:30:47.030Z,28.52
2022-12-08T03:33:13.303Z,28.60
2022-12-08T03:35:39.579Z,28.17
2022-12-08T03:38:05.834Z,28.34
2022-12-08T03:40:32.083Z,27.94
2022-12-08T03:42:58.361Z,28.90
2022-12-08T03:45:24.627Z,30.08
2022-12-08T03:47:50.902Z,30.07
2022-12-08T03:50:17.159Z,28.22
2022-12-08T03:52:43.419Z,28.68
2022-12-08T03:55:09.682Z,29.21
2022-12-08T03:57:35.955Z,28.64
2022-12-08T04:00:02.797Z,29.48
2022-12-08T04:02:29.304Z,29.07
2022-12-08T04:04:55.649Z,28.49
2022-12-08T04:07:21.940Z,28.78
2022-12-08T04:09:48.183Z,28.28
2022-12-08T04:12:14.455Z,28.68
2022-12-08T04:14:40.730Z,29.07
2022-12-08T04:17:07.010Z,28.57
2022-12-08T04:19:33.289Z,28.54
2022-12-08T04:21:59.549Z,28.27
2022-12-08T04:24:25.815Z,28.34
2022-12-08T04:26:52.101Z,27.97
2022-12-08T04:29:18.379Z,29.61
2022-12-08T04:31:44.746Z,28.09
2022-12-08T04:34:11.068Z,28.73
2022-12-08T04:36:37.326Z,28.47
2022-12-08T04:39:03.607Z,28.41
2022-12-08T04:41:29.865Z,28.88
2022-12-08T04:43:56.157Z,28.66
2022-12-08T04:46:22.473Z,28.10
2022-12-08T04:48:48.753Z,28.17
2022-12-08T04:51:15.030Z,29.22
2022-12-08T04:53:46.307Z,28.72
2022-12-08T04:56:13.091Z,28.68
2022-12-08T04:58:39.363Z,28.13
2022-12-08T05:01:05.657Z,28.86
2022-12-08T05:03:31.968Z,29.61
2022-12-08T05:05:58.233Z,29.32
2022-12-08T05:08:24.560Z,29.71
2022-12-08T05:10:50.860Z,28.94
2022-12-08T05:13:17.142Z,29.48
2022-12-08T05:15:43.397Z,29.12
2022-12-08T05:18:09.645Z,29.23
2022-12-08T05:20:35.924Z,29.26
2022-12-08T05:23:02.169Z,28.65
2022-12-08T05:25:28.460Z,30.40
2022-12-08T05:28:06.159Z,29.90
2022-12-08T05:30:37.862Z,29.47
2022-12-08T05:33:04.112Z,28.93
2022-12-08T05:35:30.358Z,29.44
2022-12-08T05:37:56.657Z,30.06
2022-12-08T05:40:22.907Z,30.22
2022-12-08T05:42:49.162Z,29.63
2022-12-08T05:45:15.452Z,29.51
2022-12-08T05:47:41.701Z,29.59
2022-12-08T05:50:07.996Z,29.18
2022-12-08T05:52:34.306Z,29.52
2022-12-08T05:55:00.571Z,29.93
2022-12-08T05:57:26.828Z,29.61
2022-12-08T05:59:53.072Z,29.43
2022-12-08T06:02:19.428Z,29.84
2022-12-08T06:04:45.774Z,30.92
2022-12-08T06:07:16.036Z,29.56
2022-12-08T06:09:42.586Z,30.60
2022-12-08T06:12:08.838Z,29.74
2022-12-08T06:14:35.103Z,29.34
2022-12-08T06:17:01.412Z,29.52
2022-12-08T06:19:27.756Z,29.75
2022-12-08T06:21:54.037Z,29.01
2022-12-08T06:24:20.282Z,28.23
2022-12-08T06:26:46.534Z,27.86
2022-12-08T06:29:12.821Z,29.62
2022-12-08T06:31:39.203Z,28.85
2022-12-08T06:34:05.559Z,28.75
2022-12-08T06:36:31.848Z,27.50
2022-12-08T06:38:58.113Z,28.32
2022-12-08T06:41:24.373Z,27.72
2022-12-08T06:43:50.634Z,29.03
2022-12-08T06:46:17.027Z,27.59
2022-12-08T06:48:43.381Z,27.01
2022-12-08T06:51:09.654Z,26.20
2022-12-08T06:53:35.956Z,26.11
2022-12-08T06:56:02.229Z,26.74
2022-12-08T06:58:28.496Z,26.41
2022-12-08T07:00:55.050Z,25.47
2022-12-08T07:03:21.369Z,26.68
2022-12-08T07:05:47.679Z,26.19
2022-12-08T07:08:14.068Z,27.28
2022-12-08T07:10:40.385Z,27.74
2022-12-08T07:13:06.652Z,27.17
2022-12-08T07:15:32.904Z,26.72
2022-12-08T07:18:00.405Z,27.19
2022-12-08T07:20:26.939Z,26.12
2022-12-08T07:22:53.209Z,25.43
2022-12-08T07:25:19.472Z,25.65
2022-12-08T07:27:45.826Z,25.56
2022-12-08T07:30:12.101Z,25.74
2022-12-08T07:32:38.362Z,24.93
2022-12-08T07:35:04.610Z,24.76
2022-12-08T07:37:30.872Z,25.04
2022-12-08T07:39:57.170Z,25.04
2022-12-08T07:42:23.430Z,25.06
2022-12-08T07:44:49.709Z,25.89
2022-12-08T07:47:15.973Z,25.08
2022-12-08T07:49:42.246Z,25.83
2022-12-08T07:52:08.509Z,25.50
2022-12-08T07:54:34.780Z,25.30
2022-12-08T07:57:01.044Z,26.38
2022-12-08T07:59:27.309Z,26.76
2022-12-08T08:02:13.470Z,25.79
2022-12-08T08:04:39.844Z,26.22
2022-12-08T08:07:06.155Z,26.85
2022-12-08T08:09:32.426Z,26.10
2022-12-08T08:12:29.098Z,27.06
2022-12-08T08:14:44.945Z,25.67
2022-12-08T08:17:11.439Z,25.81
2022-12-08T08:19:37.819Z,25.66
2022-12-08T08:22:04.076Z,26.57
2022-12-08T08:24:30.357Z,25.31
2022-12-08T08:26:56.601Z,26.44
2022-12-08T08:29:22.950Z,26.54
2022-12-08T08:31:49.259Z,26.65
2022-12-08T08:34:15.559Z,25.90
2022-12-08T08:36:41.897Z,25.83
2022-12-08T08:39:08.213Z,25.19
2022-12-08T08:41:34.466Z,24.82
2022-12-08T08:44:00.722Z,25.41
2022-12-08T08:46:27.188Z,25.19
2022-12-08T08:48:53.475Z,25.55
2022-12-08T08:51:19.828Z,26.22
2022-12-08T08:53:46.098Z,27.34
2022-12-08T08:56:12.432Z,26.60
2022-12-08T08:58:38.715Z,26.72
2022-12-08T09:01:04.988Z,25.40
2022-12-08T09:03:31.261Z,25.55
2022-12-08T09:05:57.614Z,25.54
2022-12-08T09:08:24.013Z,26.39
2022-12-08T09:10:50.376Z,27.68
2022-12-08T09:13:16.646Z,26.81
2022-12-08T09:15:42.966Z,26.29
2022-12-08T09:18:09.335Z,26.41
2022-12-08T09:20:35.601Z,26.89
2022-12-08T09:23:01.881Z,26.85
2022-12-08T09:25:28.137Z,26.40
2022-12-08T09:27:54.432Z,26.27
2022-12-08T09:30:20.718Z,26.98
2022-12-08T09:32:47.075Z,25.75
2022-12-08T09:35:13.337Z,26.29
2022-12-08T09:37:39.643Z,26.59
2022-12-08T09:40:06.073Z,25.84
2022-12-08T09:42:32.548Z,25.99
2022-12-08T09:44:58.830Z,26.85
2022-12-08T09:47:26.123Z,25.93
2022-12-08T09:49:54.649Z,25.50
2022-12-08T09:52:20.988Z,26.91
2022-12-08T09:54:47.374Z,26.30
2022-12-08T09:57:13.688Z,26.16
2022-12-08T09:59:40.037Z,26.51
2022-12-08T10:02:06.409Z,26.22
2022-12-08T10:04:32.850Z,26.40
2022-12-08T10:06:59.251Z,26.07
2022-12-08T10:09:25.505Z,27.15
2022-12-08T10:11:51.765Z,25.56
2022-12-08T10:14:18.024Z,24.86
2022-12-08T10:16:44.367Z,25.16
2022-12-08T10:19:10.687Z,24.72
2022-12-08T10:21:36.961Z,25.51
2022-12-08T10:24:03.220Z,24.67
2022-12-08T10:26:29.503Z,24.70
2022-12-08T10:28:55.816Z,24.69
2022-12-08T10:31:22.166Z,24.63
2022-12-08T10:33:48.479Z,24.95
2022-12-08T10:36:14.736Z,25.11
2022-12-08T10:38:41.009Z,24.74
2022-12-08T10:41:07.297Z,24.15
2022-12-08T10:43:33.565Z,24.50
2022-12-08T10:45:59.827Z,23.26
2022-12-08T10:48:26.100Z,24.22
2022-12-08T10:50:52.367Z,23.89
2022-12-08T10:53:18.645Z,24.12
2022-12-08T10:55:44.914Z,24.40
2022-12-08T10:58:11.208Z,24.80
2022-12-08T11:00:37.674Z,24.34
2022-12-08T11:03:04.129Z,23.96
2022-12-08T11:05:30.498Z,23.83
2022-12-08T11:07:56.772Z,23.92
2022-12-08T11:10:23.337Z,24.14
2022-12-08T11:12:49.643Z,23.96
2022-12-08T11:15:15.922Z,24.91
2022-12-08T11:17:42.188Z,24.18
2022-12-08T11:20:08.845Z,24.71
2022-12-08T11:22:35.318Z,24.71
2022-12-08T11:25:01.581Z,24.32
2022-12-08T11:27:27.854Z,23.22
2022-12-08T11:29:54.129Z,23.43
2022-12-08T11:32:20.457Z,23.71
2022-12-08T11:34:46.727Z,24.22
2022-12-08T11:37:13.125Z,23.64
2022-12-08T11:39:39.506Z,23.22
2022-12-08T11:42:05.755Z,23.26
2022-12-08T11:44:32.043Z,23.32
2022-12-08T11:46:58.318Z,23.05
2022-12-08T11:49:24.586Z,24.28
2022-12-08T11:51:50.856Z,23.24
2022-12-08T11:54:17.122Z,23.04
2022-12-08T11:56:43.391Z,23.83
2022-12-08T11:59:10.000Z,22.79
2022-12-08T12:01:42.200Z,22.97
2022-12-08T12:04:08.932Z,23.16
2022-12-08T12:06:53.819Z,23.94
2022-12-08T12:09:21.347Z,23.43
2022-12-08T12:11:47.624Z,22.15
2022-12-08T12:14:14.174Z,22.63
2022-12-08T12:16:40.558Z,22.05
2022-12-08T12:19:06.883Z,22.36
2022-12-08T12:21:33.131Z,23.54
2022-12-08T12:23:59.410Z,22.99
2022-12-08T12:26:25.673Z,22.61
2022-12-08T12:28:51.949Z,22.16
2022-12-08T12:31:18.287Z,21.31
2022-12-08T12:33:44.691Z,21.24
2022-12-08T12:36:10.948Z,21.39
2022-12-08T12:38:37.202Z,21.10
2022-12-08T12:41:03.466Z,20.82
2022-12-08T12:43:29.715Z,20.63
2022-12-08T12:45:56.052Z,21.43
2022-12-08T12:48:22.327Z,21.01
2022-12-08T12:50:48.597Z,20.70
2022-12-08T12:53:14.899Z,21.18
2022-12-08T12:55:41.171Z,21.67
2022-12-08T12:58:07.459Z,20.63
2022-12-08T13:00:33.754Z,20.98
2022-12-08T13:03:00.061Z,20.39
2022-12-08T13:05:26.447Z,20.89
2022-12-08T13:07:52.842Z,21.21
2022-12-08T13:10:19.197Z,20.86
2022-12-08T13:12:45.492Z,20.31
2022-12-08T13:15:11.743Z,21.39
2022-12-08T13:17:38.029Z,21.14
2022-12-08T13:20:04.573Z,20.40
2022-12-08T13:22:31.096Z,20.67
2022-12-08T13:24:57.369Z,20.85
2022-12-08T13:27:23.643Z,20.70
2022-12-08T13:29:49.892Z,20.70
2022-12-08T13:32:16.143Z,20.91
2022-12-08T13:34:42.419Z,20.52
2022-12-08T13:37:08.692Z,19.61
2022-12-08T13:39:34.983Z,20.49
2022-12-08T13:42:01.256Z,21.04
2022-12-08T13:58:18.913Z,21.20
2022-12-08T14:00:45.196Z,21.06
2022-12-08T14:03:11.742Z,21.79
2022-12-08T14:06:10.618Z,21.56
2022-12-08T14:08:50.781Z,21.58
2022-12-08T14:11:10.636Z,21.95
2022-12-08T14:13:36.900Z,21.95
2022-12-08T14:16:03.230Z,21.54
2022-12-08T14:18:29.901Z,22.32
2022-12-08T14:21:19.864Z,22.04
2022-12-08T14:23:42.429Z,21.47
2022-12-08T14:26:08.723Z,21.75
2022-12-08T14:28:37.807Z,22.08
2022-12-08T14:31:07.823Z,21.83
2022-12-08T14:33:34.130Z,22.44
2022-12-08T14:36:00.450Z,21.34
2022-12-08T14:38:26.802Z,21.71
2022-12-08T14:40:53.106Z,22.19
2022-12-08T14:43:19.382Z,22.02
2022-12-08T14:45:45.682Z,21.86
2022-12-08T14:48:11.957Z,22.18
2022-12-08T14:50:38.205Z,20.88
2022-12-08T14:53:04.471Z,21.63
2022-12-08T14:55:30.738Z,20.13
2022-12-08T14:57:57.035Z,20.94
2022-12-08T15:00:23.314Z,22.14
2022-12-08T15:02:49.602Z,22.12
2022-12-08T15:05:15.966Z,21.64
2022-12-08T15:07:42.354Z,21.62
2022-12-08T15:10:08.772Z,21.93
2022-12-08T15:12:35.263Z,22.08
2022-12-08T15:15:01.544Z,22.21
2022-12-08T15:17:27.806Z,22.80
2022-12-08T15:19:54.135Z,22.51
2022-12-08T15:22:20.446Z,22.33
2022-12-08T15:24:46.745Z,23.49
2022-12-08T15:27:13.217Z,22.78
2022-12-08T15:29:39.494Z,22.34
2022-12-08T15:32:05.745Z,22.59
2022-12-08T15:34:32.020Z,22.80
2022-12-08T15:36:58.303Z,23.14
2022-12-08T15:39:24.580Z,22.67
2022-12-08T15:41:50.843Z,23.64
2022-12-08T15:44:17.235Z,22.89
2022-12-08T15:46:43.599Z,23.51
2022-12-08T15:49:09.924Z,23.95
2022-12-08T15:51:36.185Z,23.48
2022-12-08T15:54:02.479Z,23.25
2022-12-08T15:56:28.978Z,23.78
2022-12-08T15:58:56.961Z,23.22
2022-12-08T16:01:23.982Z,23.62
2022-12-08T16:09:23.147Z,24.48
2022-12-08T16:12:05.727Z,25.06
2022-12-08T16:15:39.732Z,25.95
2022-12-08T16:17:19.443Z,26.38
2022-12-08T16:19:45.729Z,27.82
2022-12-08T16:25:04.973Z,26.38
2022-12-08T16:30:27.488Z,25.06
2022-12-08T16:32:53.751Z,24.91
2022-12-08T16:35:20.048Z,24.24
2022-12-08T16:37:46.321Z,27.04
2022-12-08T16:40:12.716Z,27.98
2022-12-08T16:42:39.069Z,26.74
2022-12-08T16:45:05.581Z,25.76
2022-12-08T16:47:32.180Z,25.62
2022-12-08T16:49:58.434Z,25.99
2022-12-08T16:52:24.713Z,25.91
2022-12-08T16:54:50.961Z,30.39
2022-12-08T16:57:17.235Z,32.86
2022-12-08T16:59:43.495Z,33.77
2022-12-08T17:02:15.071Z,34.75
2022-12-08T17:04:42.706Z,33.44
2022-12-08T17:07:09.040Z,30.93
2022-12-08T17:09:35.290Z,29.48
2022-12-08T17:12:03.985Z,29.07
2022-12-08T17:14:30.617Z,29.99
2022-12-08T17:16:56.976Z,30.30
2022-12-08T17:19:23.328Z,31.66
2022-12-08T17:21:49.624Z,30.88
2022-12-08T17:24:21.657Z,28.10
2022-12-08T17:26:48.309Z,27.42
2022-12-08T17:29:14.590Z,27.57
2022-12-08T17:31:40.889Z,26.97
2022-12-08T17:34:07.158Z,26.49
2022-12-08T17:36:33.430Z,25.78
2022-12-08T17:38:59.709Z,26.02
2022-12-08T17:41:25.985Z,26.35
2022-12-08T17:43:52.237Z,26.45
2022-12-08T17:46:18.631Z,26.06
2022-12-08T17:48:44.903Z,26.95
2022-12-08T17:51:11.194Z,27.84
2022-12-08T17:53:37.765Z,29.00
2022-12-08T17:56:04.058Z,32.35
2022-12-08T17:58:30.315Z,28.87
2022-12-08T18:00:56.692Z,28.49
2022-12-08T18:03:22.976Z,27.49
2022-12-08T18:05:49.292Z,27.83
2022-12-08T18:08:15.635Z,28.33
2022-12-08T18:10:41.986Z,27.68
2022-12-08T18:13:08.268Z,27.77
2022-12-08T18:15:38.996Z,27.90
2022-12-08T18:18:05.662Z,27.87
2022-12-08T18:20:31.952Z,27.51
2022-12-08T18:22:58.222Z,26.49
2022-12-08T18:25:24.518Z,26.29
2022-12-08T18:27:50.797Z,26.46
2022-12-08T18:30:17.075Z,26.78
2022-12-08T18:32:43.345Z,28.04
2022-12-08T18:35:09.593Z,28.88
2022-12-08T18:37:35.885Z,28.81
2022-12-08T18:40:02.304Z,27.78
2022-12-08T18:42:28.687Z,29.70
2022-12-08T18:44:55.010Z,28.96
2022-12-08T18:47:21.309Z,28.66
2022-12-08T18:49:47.593Z,29.66
2022-12-08T18:52:13.873Z,29.04
2022-12-08T18:55:05.097Z,27.80
2022-12-08T18:57:26.378Z,28.14
2022-12-08T18:59:52.701Z,29.69
2022-12-08T19:02:19.020Z,29.53
2022-12-08T19:04:45.333Z,29.12
2022-12-08T19:07:11.598Z,29.95
2022-12-08T19:09:37.867Z,30.51
2022-12-08T19:12:04.118Z,32.48
2022-12-08T19:14:30.455Z,33.01
2022-12-08T19:16:56.778Z,31.81
2022-12-08T19:19:23.033Z,32.08
2022-12-08T19:21:49.281Z,31.57
2022-12-08T19:24:15.565Z,30.95
2022-12-08T19:26:41.848Z,30.02
2022-12-08T19:29:08.124Z,31.11
2022-12-08T19:31:34.457Z,31.30
2022-12-08T19:34:00.771Z,32.03
2022-12-08T19:36:27.070Z,32.69
2022-12-08T19:38:53.358Z,32.96
2022-12-08T19:41:19.622Z,32.18
2022-12-08T19:43:46.025Z,32.79
2022-12-08T19:46:12.483Z,33.74
2022-12-08T19:48:38.863Z,33.52
2022-12-08T19:51:05.139Z,33.30
2022-12-08T19:53:31.421Z,33.74
2022-12-08T19:55:57.737Z,31.29
2022-12-08T19:58:24.016Z,31.98
2022-12-08T20:00:50.290Z,33.00
2022-12-08T20:03:16.616Z,32.91
2022-12-08T20:05:42.932Z,32.87
2022-12-08T20:08:09.271Z,32.07
2022-12-08T20:10:35.646Z,32.57
2022-12-08T20:13:01.931Z,33.77
2022-12-08T20:15:28.217Z,33.84
2022-12-08T20:17:54.478Z,33.06
2022-12-08T20:20:20.825Z,34.55
2022-12-08T20:22:47.148Z,34.43
2022-12-08T20:25:13.636Z,34.33
2022-12-08T20:27:39.957Z,33.37
2022-12-08T20:30:07.837Z,33.87
2022-12-08T20:32:36.857Z,33.88
2022-12-08T20:35:03.519Z,33.25
2022-12-08T20:37:30.099Z,33.55
2022-12-08T20:39:56.407Z,32.64
2022-12-08T20:42:22.815Z,32.27
2022-12-08T20:44:49.098Z,32.85
2022-12-08T20:47:15.484Z,32.45
2022-12-08T20:49:41.804Z,32.49
2022-12-08T20:52:08.273Z,33.39
2022-12-08T20:54:34.635Z,33.96
2022-12-08T20:57:01.052Z,33.50
2022-12-08T20:59:27.407Z,34.93
2022-12-08T21:01:55.002Z,34.54
2022-12-08T21:04:21.454Z,34.98
2022-12-08T21:06:48.117Z,33.48
2022-12-08T21:09:14.599Z,33.94
2022-12-08T21:11:41.001Z,33.81
2022-12-08T21:14:07.418Z,34.29
2022-12-08T21:16:33.875Z,35.86
2022-12-08T21:19:00.342Z,35.78
2022-12-08T21:21:26.832Z,36.54
2022-12-08T21:23:53.265Z,38.12
2022-12-08T21:26:19.621Z,36.83
2022-12-08T21:28:46.020Z,37.48
2022-12-08T21:31:12.508Z,36.24
2022-12-08T21:33:38.955Z,35.59
2022-12-08T21:36:05.361Z,36.47
2022-12-08T21:38:31.817Z,35.41
2022-12-08T21:40:58.363Z,35.83
2022-12-08T21:43:24.825Z,36.57
2022-12-08T21:45:51.183Z,35.95
2022-12-08T21:48:17.538Z,36.84
2022-12-08T21:50:44.155Z,36.09
2022-12-08T21:53:10.448Z,35.76
2022-12-08T21:55:36.928Z,35.87
2022-12-08T21:58:03.373Z,36.00
2022-12-08T22:00:29.838Z,35.76
2022-12-08T22:02:56.431Z,37.09
2022-12-08T22:05:22.822Z,36.07
2022-12-08T22:07:49.349Z,36.21
2022-12-08T22:10:15.782Z,37.54
2022-12-08T22:12:42.137Z,36.99
2022-12-08T22:15:08.463Z,36.40
2022-12-08T22:17:34.993Z,37.29
2022-12-08T22:20:01.527Z,38.31
2022-12-08T22:22:28.023Z,37.32
2022-12-08T22:24:54.301Z,36.69
2022-12-08T22:27:20.666Z,37.14
2022-12-08T22:29:46.918Z,37.54
2022-12-08T22:32:13.356Z,37.98
2022-12-08T22:34:39.653Z,38.14
2022-12-08T22:37:05.905Z,38.75
2022-12-08T22:39:32.176Z,38.04
2022-12-08T22:41:58.607Z,37.27
2022-12-08T22:44:25.066Z,36.52
2022-12-08T22:46:51.372Z,37.22
2022-12-08T22:49:17.658Z,36.34
2022-12-08T22:51:43.942Z,36.89
2022-12-08T22:54:10.215Z,37.00
2022-12-08T22:56:36.575Z,36.88
2022-12-08T22:59:03.046Z,37.81
2022-12-08T23:01:29.328Z,37.71
2022-12-08T23:03:55.759Z,38.51
2022-12-08T23:06:22.135Z,36.85
2022-12-08T23:08:48.548Z,37.63
2022-12-08T23:11:15.151Z,36.60
2022-12-08T23:13:41.435Z,37.16
2022-12-08T23:16:07.891Z,37.13
2022-12-08T23:18:34.205Z,36.32
2022-12-08T23:21:00.653Z,37.88
2022-12-08T23:23:26.913Z,36.35
2022-12-08T23:25:53.356Z,35.85
2022-12-08T23:28:19.751Z,36.76
2022-12-08T23:30:46.098Z,35.89
2022-12-08T23:33:12.651Z,36.60
2022-12-08T23:35:39.025Z,36.92
2022-12-08T23:38:05.529Z,37.01
2022-12-08T23:40:32.029Z,37.31
2022-12-08T23:42:58.346Z,36.53
2022-12-08T23:45:24.715Z,37.52
2022-12-08T23:47:51.001Z,36.92
2022-12-08T23:50:17.254Z,37.47
2022-12-08T23:52:43.587Z,36.89
2022-12-08T23:55:09.868Z,36.47
2022-12-08T23:57:36.171Z,35.74
